createdAt,value
2022-12-01T00:02:07.274Z,7.30
2022-12-01T00:06:17.838Z,7.27
2022-12-01T00:10:28.696Z,7.23
2022-12-01T00:14:30.231Z,7.23
2022-12-01T00:18:31.771Z,7.26
2022-12-01T00:22:34.049Z,7.19
2022-12-01T00:26:37.916Z,7.21
2022-12-01T00:30:39.535Z,7.21
2022-12-01T00:34:41.164Z,7.15
2022-12-01T00:38:42.993Z,7.15
2022-12-01T00:42:44.521Z,7.16
2022-12-01T00:46:46.147Z,7.16
2022-12-01T00:50:47.977Z,7.15
2022-12-01T00:54:49.581Z,7.15
2022-12-01T00:58:51.219Z,7.15
2022-12-01T01:02:52.909Z,7.09
2022-12-01T01:06:54.506Z,7.07
2022-12-01T01:10:59.431Z,7.01
2022-12-01T01:15:01.107Z,6.99
2022-12-01T01:19:02.745Z,6.83
2022-12-01T01:23:04.252Z,6.91
2022-12-01T01:27:08.390Z,6.94
2022-12-01T01:31:12.689Z,6.93
2022-12-01T01:35:14.344Z,6.93
2022-12-01T01:39:16.240Z,6.90
2022-12-01T01:43:38.225Z,6.86
2022-12-01T01:47:40.750Z,6.82
2022-12-01T01:51:46.450Z,6.89
2022-12-01T01:55:48.087Z,6.82
2022-12-01T01:59:55.305Z,6.83
2022-12-01T02:03:57.204Z,6.79
2022-12-01T02:08:00.122Z,6.81
2022-12-01T02:12:26.096Z,6.83
2022-12-01T02:16:42.881Z,6.81
2022-12-01T02:21:10.609Z,6.79
2022-12-01T02:25:18.049Z,6.82
2022-12-01T02:29:38.291Z,6.81
2022-12-01T02:33:59.227Z,6.78
2022-12-01T02:38:12.804Z,6.81
2022-12-01T02:42:43.516Z,6.82
2022-12-01T02:46:55.202Z,6.79
2022-12-01T02:51:00.872Z,6.86
2022-12-01T02:55:02.442Z,6.87
2022-12-01T02:59:15.082Z,6.86
2022-12-01T03:03:37.003Z,6.87
2022-12-01T03:08:00.895Z,6.91
2022-12-01T03:12:20.547Z,6.89
2022-12-01T03:16:31.437Z,6.87
2022-12-01T03:20:48.604Z,6.79
2022-12-01T03:24:53.180Z,6.83
2022-12-01T03:29:08.265Z,6.82
2022-12-01T03:33:19.085Z,6.79
2022-12-01T03:37:27.657Z,6.75
2022-12-01T03:41:37.833Z,6.69
2022-12-01T03:46:17.609Z,6.54
2022-12-01T03:50:19.575Z,6.55
2022-12-01T03:54:55.370Z,6.53
2022-12-01T03:59:00.184Z,6.55
2022-12-01T04:03:04.046Z,6.51
2022-12-01T04:07:07.068Z,6.50
2022-12-01T04:11:32.391Z,6.53
2022-12-01T04:15:34.454Z,6.50
2022-12-01T04:19:36.031Z,6.39
2022-12-01T04:23:56.351Z,6.38
2022-12-01T04:27:57.865Z,6.43
2022-12-01T04:31:59.404Z,6.45
2022-12-01T04:36:01.395Z,6.38
2022-12-01T04:40:03.813Z,6.35
2022-12-01T04:44:05.573Z,6.33
2022-12-01T04:48:07.097Z,6.30
2022-12-01T04:52:08.615Z,6.21
2022-12-01T04:56:10.362Z,6.27
2022-12-01T05:00:13.370Z,6.27
2022-12-01T05:04:15.488Z,6.27
2022-12-01T05:08:17.098Z,6.30
2022-12-01T05:12:18.979Z,6.30
2022-12-01T05:16:23.730Z,6.30
2022-12-01T05:20:44.880Z,6.27
2022-12-01T05:24:46.386Z,6.27
2022-12-01T05:28:47.981Z,6.24
2022-12-01T05:32:49.557Z,6.21
2022-12-01T05:36:51.089Z,6.27
2022-12-01T05:40:54.434Z,6.24
2022-12-01T05:44:55.922Z,6.27
2022-12-01T05:48:57.448Z,6.28
2022-12-01T05:52:59.017Z,6.24
2022-12-01T05:57:00.549Z,6.20
2022-12-01T06:01:02.945Z,6.20
2022-12-01T06:05:04.793Z,6.19
2022-12-01T06:09:06.489Z,6.17
2022-12-01T06:13:08.538Z,6.16
2022-12-01T06:17:10.757Z,6.19
2022-12-01T06:21:12.321Z,6.20
2022-12-01T06:25:13.859Z,6.21
2022-12-01T06:29:15.640Z,6.21
2022-12-01T06:33:17.122Z,6.24
2022-12-01T06:37:18.764Z,6.28
2022-12-01T06:41:20.324Z,6.28
2022-12-01T06:45:21.869Z,6.25
2022-12-01T06:49:23.436Z,6.17
2022-12-01T06:53:27.209Z,6.13
2022-12-01T06:57:28.746Z,6.13
2022-12-01T07:01:30.786Z,6.08
2022-12-01T07:05:32.380Z,6.10
2022-12-01T07:09:34.235Z,6.13
2022-12-01T07:13:35.929Z,6.10
2022-12-01T07:17:37.544Z,6.13
2022-12-01T07:21:39.071Z,6.14
2022-12-01T07:25:40.761Z,6.19
2022-12-01T07:29:42.240Z,6.16
2022-12-01T07:33:44.330Z,6.17
2022-12-01T07:37:46.044Z,6.20
2022-12-01T07:41:47.590Z,6.25
2022-12-01T07:45:49.478Z,6.25
2022-12-01T07:49:51.276Z,6.25
2022-12-01T07:53:54.430Z,6.25
2022-12-01T07:57:56.112Z,6.27
2022-12-01T08:01:57.729Z,6.32
2022-12-01T08:06:01.116Z,6.28
2022-12-01T08:10:02.658Z,6.27
2022-12-01T08:14:04.222Z,6.28
2022-12-01T08:18:05.752Z,6.28
2022-12-01T08:22:07.293Z,6.33
2022-12-01T08:26:18.402Z,6.35
2022-12-01T08:30:20.015Z,6.38
2022-12-01T08:34:21.618Z,6.40
2022-12-01T08:38:23.186Z,6.42
2022-12-01T08:42:24.674Z,6.43
2022-12-01T08:46:28.836Z,6.48
2022-12-01T08:50:30.418Z,6.51
2022-12-01T08:54:32.062Z,6.53
2022-12-01T08:58:33.641Z,6.58
2022-12-01T09:02:35.359Z,6.61
2022-12-01T09:06:45.904Z,6.65
2022-12-01T09:10:52.274Z,6.68
2022-12-01T09:14:53.925Z,6.69
2022-12-01T09:18:55.629Z,6.69
2022-12-01T09:22:57.161Z,6.72
2022-12-01T09:26:59.879Z,6.68
2022-12-01T09:31:07.234Z,6.69
2022-12-01T09:35:08.856Z,6.71
2022-12-01T09:39:15.408Z,6.72
2022-12-01T09:43:23.003Z,6.64
2022-12-01T09:47:31.600Z,6.64
2022-12-01T09:51:36.145Z,6.64
2022-12-01T09:55:39.462Z,6.64
2022-12-01T09:59:43.178Z,6.64
2022-12-01T10:03:49.915Z,6.65
2022-12-01T10:08:02.198Z,6.68
2022-12-01T10:12:19.173Z,6.69
2022-12-01T10:16:33.166Z,6.63
2022-12-01T10:20:53.608Z,6.65
2022-12-01T10:25:00.537Z,6.69
2022-12-01T10:29:30.904Z,6.72
2022-12-01T10:33:45.767Z,6.75
2022-12-01T10:37:52.230Z,6.78
2022-12-01T10:42:01.648Z,6.81
2022-12-01T10:46:28.128Z,6.86
2022-12-01T10:50:29.795Z,6.86
2022-12-01T10:54:34.806Z,6.87
2022-12-01T10:58:43.551Z,6.87
2022-12-01T11:02:45.564Z,6.86
2022-12-01T11:06:51.021Z,6.91
2022-12-01T11:10:52.712Z,6.93
2022-12-01T11:14:56.659Z,6.97
2022-12-01T11:19:28.471Z,7.05
2022-12-01T11:23:30.196Z,7.04
2022-12-01T11:27:35.528Z,7.09
2022-12-01T11:31:42.323Z,7.08
2022-12-01T11:35:49.003Z,7.12
2022-12-01T11:39:52.352Z,7.16
2022-12-01T11:44:01.599Z,7.19
2022-12-01T11:48:24.125Z,7.16
2022-12-01T11:52:32.278Z,7.16
2022-12-01T11:56:33.862Z,7.18
2022-12-01T12:00:53.161Z,7.15
2022-12-01T12:05:04.716Z,7.16
2022-12-01T12:09:15.267Z,7.12
2022-12-01T12:13:16.824Z,7.11
2022-12-01T12:17:38.253Z,7.12
2022-12-01T12:22:07.208Z,7.11
2022-12-01T12:26:14.557Z,7.12
2022-12-01T12:30:20.176Z,7.12
2022-12-01T12:34:33.762Z,7.08
2022-12-01T12:38:54.093Z,7.08
2022-12-01T12:43:21.087Z,7.09
2022-12-01T12:47:57.390Z,7.15
2022-12-01T12:52:08.892Z,7.09
2022-12-01T12:56:15.270Z,7.12
2022-12-01T13:00:27.116Z,7.14
2022-12-01T13:04:40.695Z,7.12
2022-12-01T13:08:56.754Z,7.18
2022-12-01T13:13:28.114Z,7.21
2022-12-01T13:17:35.860Z,7.15
2022-12-01T13:21:41.826Z,7.15
2022-12-01T13:25:47.203Z,7.12
2022-12-01T13:29:51.988Z,7.08
2022-12-01T13:33:59.524Z,7.05
2022-12-01T13:38:33.572Z,6.96
2022-12-01T13:42:36.283Z,6.91
2022-12-01T13:46:44.046Z,6.94
2022-12-01T13:50:52.827Z,6.93
2022-12-01T13:55:03.463Z,7.08
2022-12-01T13:59:43.406Z,7.04
2022-12-01T14:04:03.637Z,6.93
2022-12-01T14:08:23.319Z,6.83
2022-12-01T14:12:30.203Z,6.81
2022-12-01T14:16:53.892Z,6.79
2022-12-01T14:20:55.965Z,6.75
2022-12-01T14:24:57.814Z,6.75
2022-12-01T14:29:02.122Z,6.69
2022-12-01T14:33:39.393Z,6.68
2022-12-01T14:37:44.186Z,6.64
2022-12-01T14:41:51.078Z,6.60
2022-12-01T14:46:04.580Z,6.51
2022-12-01T14:50:15.401Z,6.53
2022-12-01T14:54:34.874Z,6.48
2022-12-01T14:58:36.705Z,6.43
2022-12-01T15:02:44.215Z,6.40
2022-12-01T15:06:46.204Z,6.40
2022-12-01T15:10:57.222Z,6.32
2022-12-01T15:14:59.296Z,6.30
2022-12-01T15:19:01.492Z,6.27
2022-12-01T15:23:12.580Z,6.25
2022-12-01T15:27:31.370Z,6.19
2022-12-01T15:31:35.081Z,6.14
2022-12-01T15:35:37.422Z,6.08
2022-12-01T15:39:45.198Z,6.02
2022-12-01T15:43:55.405Z,5.99
2022-12-01T15:47:57.292Z,5.96
2022-12-01T15:52:11.684Z,5.92
2022-12-01T15:56:14.012Z,5.87
2022-12-01T16:00:22.223Z,5.88
2022-12-01T16:04:32.070Z,5.92
2022-12-01T16:08:33.843Z,5.88
2022-12-01T16:12:37.041Z,5.84
2022-12-01T16:16:46.737Z,5.84
2022-12-01T16:20:48.356Z,5.84
2022-12-01T16:24:53.340Z,5.87
2022-12-01T16:28:56.239Z,5.88
2022-12-01T16:33:13.197Z,5.87
2022-12-01T16:37:15.124Z,5.88
2022-12-01T16:41:24.923Z,5.90
2022-12-01T16:45:26.984Z,5.92
2022-12-01T16:49:28.636Z,5.92
2022-12-01T16:53:30.439Z,5.93
2022-12-01T16:57:31.997Z,5.95
2022-12-01T17:01:33.647Z,5.95
2022-12-01T17:05:35.324Z,5.99
2022-12-01T17:09:36.921Z,6.01
2022-12-01T17:13:38.696Z,5.99
2022-12-01T17:17:40.307Z,6.01
2022-12-01T17:21:41.968Z,5.99
2022-12-01T17:25:43.528Z,5.98
2022-12-01T17:29:46.391Z,6.01
2022-12-01T17:33:48.196Z,6.02
2022-12-01T17:37:49.805Z,6.01
2022-12-01T17:41:54.064Z,6.05
2022-12-01T17:45:55.642Z,5.99
2022-12-01T17:49:57.221Z,6.01
2022-12-01T17:53:58.843Z,5.98
2022-12-01T17:58:00.493Z,5.99
2022-12-01T18:02:03.284Z,5.98
2022-12-01T18:06:04.976Z,5.98
2022-12-01T18:10:07.027Z,5.96
2022-12-01T18:14:08.666Z,5.99
2022-12-01T18:18:10.196Z,5.98
2022-12-01T18:22:11.864Z,5.96
2022-12-01T18:26:16.003Z,5.98
2022-12-01T18:30:18.037Z,5.99
2022-12-01T18:34:19.621Z,5.96
2022-12-01T18:38:23.212Z,5.98
2022-12-01T18:42:24.863Z,5.93
2022-12-01T18:46:26.745Z,5.93
2022-12-01T18:50:29.712Z,5.90
2022-12-01T18:54:31.266Z,5.95
2022-12-01T18:58:33.635Z,5.96
2022-12-01T19:02:35.324Z,5.96
2022-12-01T19:06:38.783Z,5.93
2022-12-01T19:10:40.393Z,5.90
2022-12-01T19:14:42.671Z,5.92
2022-12-01T19:18:44.551Z,5.93
2022-12-01T19:22:46.160Z,5.95
2022-12-01T19:26:47.772Z,5.92
2022-12-01T19:30:49.722Z,5.93
2022-12-01T19:34:51.494Z,5.92
2022-12-01T19:38:55.482Z,5.85
2022-12-01T19:42:58.354Z,5.85
2022-12-01T19:47:00.041Z,5.87
2022-12-01T19:51:02.016Z,5.83
2022-12-01T19:55:05.763Z,5.84
2022-12-01T19:59:11.525Z,5.85
2022-12-01T20:03:13.117Z,5.83
2022-12-01T20:07:14.700Z,5.78
2022-12-01T20:11:16.331Z,5.81
2022-12-01T20:15:17.954Z,5.80
2022-12-01T20:19:19.550Z,5.84
2022-12-01T20:23:21.108Z,5.83
2022-12-01T20:27:22.648Z,5.83
2022-12-01T20:31:26.466Z,5.84
2022-12-01T20:35:28.059Z,5.81
2022-12-01T20:39:32.339Z,5.84
2022-12-01T20:43:35.011Z,5.81
2022-12-01T20:47:36.682Z,5.80
2022-12-01T20:51:38.629Z,5.75
2022-12-01T20:55:40.235Z,5.74
2022-12-01T20:59:41.837Z,5.75
2022-12-01T21:03:45.543Z,5.73
2022-12-01T21:07:47.168Z,5.70
2022-12-01T21:12:09.232Z,5.66
2022-12-01T21:16:14.276Z,5.62
2022-12-01T21:20:29.645Z,5.56
2022-12-01T21:24:34.959Z,5.56
2022-12-01T21:28:38.600Z,5.55
2022-12-01T21:32:44.054Z,5.52
2022-12-01T21:36:48.052Z,5.51
2022-12-01T21:40:49.728Z,5.51
2022-12-01T21:44:51.597Z,5.47
2022-12-01T21:48:54.402Z,5.51
2022-12-01T21:52:55.940Z,5.47
2022-12-01T21:56:58.462Z,5.42
2022-12-01T22:01:00.390Z,5.41
2022-12-01T22:05:02.001Z,5.40
2022-12-01T22:09:45.405Z,5.38
2022-12-01T22:13:52.102Z,5.35
2022-12-01T22:17:53.743Z,5.37
2022-12-01T22:22:01.614Z,5.32
2022-12-01T22:26:16.523Z,5.35
2022-12-01T22:30:23.290Z,5.35
2022-12-01T22:34:24.814Z,5.32
2022-12-01T22:38:34.777Z,5.29
2022-12-01T22:42:37.013Z,5.26
2022-12-01T22:46:41.715Z,5.26
2022-12-01T22:50:46.236Z,5.24
2022-12-01T22:54:52.147Z,5.19
2022-12-01T22:58:54.652Z,5.23
2022-12-01T23:02:56.468Z,5.22
2022-12-01T23:07:01.726Z,5.23
2022-12-01T23:11:09.705Z,5.17
2022-12-01T23:15:20.687Z,5.14
2022-12-01T23:19:22.224Z,5.09
2022-12-01T23:23:27.995Z,5.08
2022-12-01T23:27:30.905Z,5.06
2022-12-01T23:31:33.018Z,5.04
2022-12-01T23:35:54.823Z,5.06
2022-12-01T23:39:56.624Z,5.02
2022-12-01T23:44:01.666Z,4.99
2022-12-01T23:48:06.826Z,4.97
2022-12-01T23:52:19.429Z,4.93
2022-12-01T23:56:24.200Z,4.87
